sensor_id;sensor_type;location;lat;lon;timestamp;temperature;humidity
59660;DHT22;45534;52.690;6.268;2024-02-26T00:01:27;4.00;99.90
59660;DHT22;45534;52.690;6.268;2024-02-26T00:03:52;4.00;99.90
59660;DHT22;45534;52.690;6.268;2024-02-26T00:06:19;3.90;99.90
59660;DHT22;45534;52.690;6.268;2024-02-26T00:08:45;3.90;99.90
59660;DHT22;45534;52.690;6.268;2024-02-26T00:11:11;3.90;99.90
59660;DHT22;45534;52.690;6.268;2024-02-26T00:13:36;3.90;99.90
59660;DHT22;45534;52.690;6.268;2024-02-26T00:16:05;3.90;99.90
59660;DHT22;45534;52.690;6.268;2024-02-26T00:18:31;3.90;99.90
59660;DHT22;45534;52.690;6.268;2024-02-26T00:20:57;3.90;99.90
59660;DHT22;45534;52.690;6.268;2024-02-26T00:23:23;3.90;99.90
59660;DHT22;45534;52.690;6.268;2024-02-26T00:25:49;3.90;99.90
59660;DHT22;45534;52.690;6.268;2024-02-26T00:28:15;3.90;99.90
59660;DHT22;45534;52.690;6.268;2024-02-26T00:30:40;3.90;99.90
59660;DHT22;45534;52.690;6.268;2024-02-26T00:33:06;3.90;99.90
59660;DHT22;45534;52.690;6.268;2024-02-26T00:35:32;3.80;99.90
59660;DHT22;45534;52.690;6.268;2024-02-26T00:37:57;3.80;99.90
59660;DHT22;45534;52.690;6.268;2024-02-26T00:40:24;3.80;99.90
59660;DHT22;45534;52.690;6.268;2024-02-26T00:42:49;3.80;99.90
59660;DHT22;45534;52.690;6.268;2024-02-26T00:45:15;3.80;99.90
59660;DHT22;45534;52.690;6.268;2024-02-26T00:47:42;3.80;99.90
59660;DHT22;45534;52.690;6.268;2024-02-26T00:50:08;3.80;99.90
59660;DHT22;45534;52.690;6.268;2024-02-26T00:52:34;3.80;99.90
59660;DHT22;45534;52.690;6.268;2024-02-26T00:55:01;3.90;99.90
59660;DHT22;45534;52.690;6.268;2024-02-26T00:57:27;3.90;99.90
59660;DHT22;45534;52.690;6.268;2024-02-26T00:59:52;3.90;99.90
59660;DHT22;45534;52.690;6.268;2024-02-26T01:02:18;3.90;99.90
59660;DHT22;45534;52.690;6.268;2024-02-26T01:04:43;3.90;99.90
59660;DHT22;45534;52.690;6.268;2024-02-26T01:07:09;3.90;99.90
59660;DHT22;45534;52.690;6.268;2024-02-26T01:09:35;4.00;99.90
59660;DHT22;45534;52.690;6.268;2024-02-26T01:12:01;4.00;99.90
59660;DHT22;45534;52.690;6.268;2024-02-26T01:14:28;4.00;99.90
59660;DHT22;45534;52.690;6.268;2024-02-26T01:16:53;4.00;99.90
59660;DHT22;45534;52.690;6.268;2024-02-26T01:19:19;4.00;99.90
59660;DHT22;45534;52.690;6.268;2024-02-26T01:21:45;4.00;99.90
59660;DHT22;45534;52.690;6.268;2024-02-26T01:24:10;4.00;99.90
59660;DHT22;45534;52.690;6.268;2024-02-26T01:26:36;4.00;99.90
59660;DHT22;45534;52.690;6.268;2024-02-26T01:29:02;4.00;99.90
59660;DHT22;45534;52.690;6.268;2024-02-26T01:31:27;4.00;99.90
59660;DHT22;45534;52.690;6.268;2024-02-26T01:33:54;4.00;99.90
59660;DHT22;45534;52.690;6.268;2024-02-26T01:36:19;4.00;99.90
59660;DHT22;45534;52.690;6.268;2024-02-26T01:38:46;4.00;99.90
59660;DHT22;45534;52.690;6.268;2024-02-26T01:41:13;4.00;99.90
59660;DHT22;45534;52.690;6.268;2024-02-26T01:43:39;4.00;99.90
59660;DHT22;45534;52.690;6.268;2024-02-26T01:46:06;4.00;99.90
59660;DHT22;45534;52.690;6.268;2024-02-26T01:48:33;4.00;99.90
59660;DHT22;45534;52.690;6.268;2024-02-26T01:50:59;3.90;99.90
59660;DHT22;45534;52.690;6.268;2024-02-26T01:53:25;4.00;99.90
59660;DHT22;45534;52.690;6.268;2024-02-26T01:55:51;4.00;99.90
59660;DHT22;45534;52.690;6.268;2024-02-26T01:58:16;3.90;99.90
59660;DHT22;45534;52.690;6.268;2024-02-26T02:00:42;3.90;99.90
59660;DHT22;45534;52.690;6.268;2024-02-26T02:03:08;3.90;99.90
59660;DHT22;45534;52.690;6.268;2024-02-26T02:05:34;3.90;99.90
59660;DHT22;45534;52.690;6.268;2024-02-26T02:08:07;3.80;99.90
59660;DHT22;45534;52.690;6.268;2024-02-26T02:10:37;3.80;99.90
59660;DHT22;45534;52.690;6.268;2024-02-26T02:13:03;3.80;99.90
59660;DHT22;45534;52.690;6.268;2024-02-26T02:15:29;3.80;99.90
59660;DHT22;45534;52.690;6.268;2024-02-26T02:17:55;3.80;99.90
59660;DHT22;45534;52.690;6.268;2024-02-26T02:20:26;3.80;99.90
59660;DHT22;45534;52.690;6.268;2024-02-26T02:22:52;3.70;99.90
59660;DHT22;45534;52.690;6.268;2024-02-26T02:25:18;3.70;99.90
59660;DHT22;45534;52.690;6.268;2024-02-26T02:27:44;3.70;99.90
59660;DHT22;45534;52.690;6.268;2024-02-26T02:30:10;3.70;99.90
59660;DHT22;45534;52.690;6.268;2024-02-26T02:32:38;3.70;99.90
59660;DHT22;45534;52.690;6.268;2024-02-26T02:35:05;3.70;99.90
59660;DHT22;45534;52.690;6.268;2024-02-26T02:37:31;3.80;99.90
59660;DHT22;45534;52.690;6.268;2024-02-26T02:39:56;3.70;99.90
59660;DHT22;45534;52.690;6.268;2024-02-26T02:42:23;3.80;99.90
59660;DHT22;45534;52.690;6.268;2024-02-26T02:44:49;3.70;99.90
59660;DHT22;45534;52.690;6.268;2024-02-26T02:47:14;3.80;99.90
59660;DHT22;45534;52.690;6.268;2024-02-26T02:49:40;3.80;99.90
59660;DHT22;45534;52.690;6.268;2024-02-26T02:52:06;3.80;99.90
59660;DHT22;45534;52.690;6.268;2024-02-26T02:54:32;3.80;99.90
59660;DHT22;45534;52.690;6.268;2024-02-26T02:56:57;3.80;99.90
59660;DHT22;45534;52.690;6.268;2024-02-26T02:59:23;3.80;99.90
59660;DHT22;45534;52.690;6.268;2024-02-26T03:01:49;3.80;99.90
59660;DHT22;45534;52.690;6.268;2024-02-26T03:04:14;3.80;99.90
59660;DHT22;45534;52.690;6.268;2024-02-26T03:06:40;3.80;99.90
59660;DHT22;45534;52.690;6.268;2024-02-26T03:09:06;3.80;99.90
59660;DHT22;45534;52.690;6.268;2024-02-26T03:11:31;3.80;99.90
59660;DHT22;45534;52.690;6.268;2024-02-26T03:13:57;3.80;99.90
59660;DHT22;45534;52.690;6.268;2024-02-26T03:16:23;3.80;99.90
59660;DHT22;45534;52.690;6.268;2024-02-26T03:18:48;3.80;99.90
59660;DHT22;45534;52.690;6.268;2024-02-26T03:21:14;3.80;99.90
59660;DHT22;45534;52.690;6.268;2024-02-26T03:23:40;3.80;99.90
59660;DHT22;45534;52.690;6.268;2024-02-26T03:26:05;3.80;99.90
59660;DHT22;45534;52.690;6.268;2024-02-26T03:28:31;3.90;99.90
59660;DHT22;45534;52.690;6.268;2024-02-26T03:30:59;3.90;99.90
59660;DHT22;45534;52.690;6.268;2024-02-26T03:33:25;3.90;99.90
59660;DHT22;45534;52.690;6.268;2024-02-26T03:35:50;3.90;99.90
59660;DHT22;45534;52.690;6.268;2024-02-26T03:38:16;3.90;99.90
59660;DHT22;45534;52.690;6.268;2024-02-26T03:40:42;3.90;99.90
59660;DHT22;45534;52.690;6.268;2024-02-26T03:43:08;3.90;99.90
59660;DHT22;45534;52.690;6.268;2024-02-26T03:45:33;3.90;99.90
59660;DHT22;45534;52.690;6.268;2024-02-26T03:47:59;3.90;99.90
59660;DHT22;45534;52.690;6.268;2024-02-26T03:50:25;4.00;99.90
59660;DHT22;45534;52.690;6.268;2024-02-26T03:52:50;4.00;99.90
59660;DHT22;45534;52.690;6.268;2024-02-26T03:55:16;4.00;99.90
59660;DHT22;45534;52.690;6.268;2024-02-26T03:57:46;4.00;99.90
59660;DHT22;45534;52.690;6.268;2024-02-26T04:00:12;4.00;99.90
59660;DHT22;45534;52.690;6.268;2024-02-26T04:02:38;4.00;99.90
59660;DHT22;45534;52.690;6.268;2024-02-26T04:05:04;4.00;99.90
59660;DHT22;45534;52.690;6.268;2024-02-26T04:07:30;4.10;99.90
59660;DHT22;45534;52.690;6.268;2024-02-26T04:09:56;4.00;99.90
59660;DHT22;45534;52.690;6.268;2024-02-26T04:12:22;4.00;99.90
59660;DHT22;45534;52.690;6.268;2024-02-26T04:14:48;4.00;99.90
59660;DHT22;45534;52.690;6.268;2024-02-26T04:17:13;4.00;99.90
59660;DHT22;45534;52.690;6.268;2024-02-26T04:19:39;4.00;99.90
59660;DHT22;45534;52.690;6.268;2024-02-26T04:22:05;4.00;99.90
59660;DHT22;45534;52.690;6.268;2024-02-26T04:24:30;4.00;99.90
59660;DHT22;45534;52.690;6.268;2024-02-26T04:26:56;4.00;99.90
59660;DHT22;45534;52.690;6.268;2024-02-26T04:29:22;4.00;99.90
59660;DHT22;45534;52.690;6.268;2024-02-26T04:31:47;4.00;99.90
59660;DHT22;45534;52.690;6.268;2024-02-26T04:34:13;4.00;99.90
59660;DHT22;45534;52.690;6.268;2024-02-26T04:36:39;4.00;99.90
59660;DHT22;45534;52.690;6.268;2024-02-26T04:39:04;4.00;99.90
59660;DHT22;45534;52.690;6.268;2024-02-26T04:41:30;4.00;99.90
59660;DHT22;45534;52.690;6.268;2024-02-26T04:43:56;4.00;99.90
59660;DHT22;45534;52.690;6.268;2024-02-26T04:46:21;4.10;99.90
59660;DHT22;45534;52.690;6.268;2024-02-26T04:48:47;4.10;99.90
59660;DHT22;45534;52.690;6.268;2024-02-26T04:51:13;4.10;99.90
59660;DHT22;45534;52.690;6.268;2024-02-26T04:53:39;4.10;99.90
59660;DHT22;45534;52.690;6.268;2024-02-26T04:56:04;4.00;99.90
59660;DHT22;45534;52.690;6.268;2024-02-26T04:58:30;4.00;99.90
59660;DHT22;45534;52.690;6.268;2024-02-26T05:00:56;4.10;99.90
59660;DHT22;45534;52.690;6.268;2024-02-26T05:03:21;4.10;99.90
59660;DHT22;45534;52.690;6.268;2024-02-26T05:05:47;4.10;99.90
59660;DHT22;45534;52.690;6.268;2024-02-26T05:08:13;4.10;99.90
59660;DHT22;45534;52.690;6.268;2024-02-26T05:10:39;4.10;99.90
59660;DHT22;45534;52.690;6.268;2024-02-26T05:13:09;4.20;99.90
59660;DHT22;45534;52.690;6.268;2024-02-26T05:15:35;4.20;99.90
59660;DHT22;45534;52.690;6.268;2024-02-26T05:18:02;4.20;99.90
59660;DHT22;45534;52.690;6.268;2024-02-26T05:20:28;4.20;99.90
59660;DHT22;45534;52.690;6.268;2024-02-26T05:22:54;4.20;99.90
59660;DHT22;45534;52.690;6.268;2024-02-26T05:25:19;4.30;99.90
59660;DHT22;45534;52.690;6.268;2024-02-26T05:27:45;4.30;99.90
59660;DHT22;45534;52.690;6.268;2024-02-26T05:30:11;4.30;99.90
59660;DHT22;45534;52.690;6.268;2024-02-26T05:32:37;4.30;99.90
59660;DHT22;45534;52.690;6.268;2024-02-26T05:35:03;4.30;99.90
59660;DHT22;45534;52.690;6.268;2024-02-26T05:37:29;4.30;99.90
59660;DHT22;45534;52.690;6.268;2024-02-26T05:39:59;4.30;99.90
59660;DHT22;45534;52.690;6.268;2024-02-26T05:42:24;4.40;99.90
59660;DHT22;45534;52.690;6.268;2024-02-26T05:44:50;4.30;99.90
59660;DHT22;45534;52.690;6.268;2024-02-26T05:47:16;4.30;99.90
59660;DHT22;45534;52.690;6.268;2024-02-26T05:49:42;4.40;99.90
59660;DHT22;45534;52.690;6.268;2024-02-26T05:52:08;4.40;99.90
59660;DHT22;45534;52.690;6.268;2024-02-26T05:54:34;4.30;99.90
59660;DHT22;45534;52.690;6.268;2024-02-26T05:56:59;4.30;99.90
59660;DHT22;45534;52.690;6.268;2024-02-26T05:59:25;4.30;99.90
59660;DHT22;45534;52.690;6.268;2024-02-26T06:01:51;4.30;99.90
59660;DHT22;45534;52.690;6.268;2024-02-26T06:04:16;4.30;99.90
59660;DHT22;45534;52.690;6.268;2024-02-26T06:06:44;4.30;99.90
59660;DHT22;45534;52.690;6.268;2024-02-26T06:09:11;4.30;99.90
59660;DHT22;45534;52.690;6.268;2024-02-26T06:11:37;4.30;99.90
59660;DHT22;45534;52.690;6.268;2024-02-26T06:14:03;4.30;99.90
59660;DHT22;45534;52.690;6.268;2024-02-26T06:16:28;4.30;99.90
59660;DHT22;45534;52.690;6.268;2024-02-26T06:18:54;4.30;99.90
59660;DHT22;45534;52.690;6.268;2024-02-26T06:21:20;4.30;99.90
59660;DHT22;45534;52.690;6.268;2024-02-26T06:23:46;4.30;99.90
59660;DHT22;45534;52.690;6.268;2024-02-26T06:26:11;4.30;99.90
59660;DHT22;45534;52.690;6.268;2024-02-26T06:28:37;4.30;99.90
59660;DHT22;45534;52.690;6.268;2024-02-26T06:31:06;4.30;99.90
59660;DHT22;45534;52.690;6.268;2024-02-26T06:33:32;4.30;99.90
59660;DHT22;45534;52.690;6.268;2024-02-26T06:35:58;4.30;99.90
59660;DHT22;45534;52.690;6.268;2024-02-26T06:38:24;4.30;99.90
59660;DHT22;45534;52.690;6.268;2024-02-26T06:40:50;4.20;99.90
59660;DHT22;45534;52.690;6.268;2024-02-26T06:43:15;4.20;99.90
59660;DHT22;45534;52.690;6.268;2024-02-26T06:45:41;4.30;99.90
59660;DHT22;45534;52.690;6.268;2024-02-26T06:48:07;4.20;99.90
59660;DHT22;45534;52.690;6.268;2024-02-26T06:50:32;4.30;99.90
59660;DHT22;45534;52.690;6.268;2024-02-26T06:52:58;4.30;99.90
59660;DHT22;45534;52.690;6.268;2024-02-26T06:55:24;4.30;99.90
59660;DHT22;45534;52.690;6.268;2024-02-26T06:57:49;4.30;99.90
59660;DHT22;45534;52.690;6.268;2024-02-26T07:00:15;4.30;99.90
59660;DHT22;45534;52.690;6.268;2024-02-26T07:02:42;4.30;99.90
59660;DHT22;45534;52.690;6.268;2024-02-26T07:05:08;4.30;99.90
59660;DHT22;45534;52.690;6.268;2024-02-26T07:07:34;4.30;99.90
59660;DHT22;45534;52.690;6.268;2024-02-26T07:10:00;4.30;99.90
59660;DHT22;45534;52.690;6.268;2024-02-26T07:12:29;4.30;99.90
59660;DHT22;45534;52.690;6.268;2024-02-26T07:14:55;4.40;99.90
59660;DHT22;45534;52.690;6.268;2024-02-26T07:17:21;4.40;99.90
59660;DHT22;45534;52.690;6.268;2024-02-26T07:19:46;4.40;99.90
59660;DHT22;45534;52.690;6.268;2024-02-26T07:22:12;4.30;99.90
59660;DHT22;45534;52.690;6.268;2024-02-26T07:24:39;4.30;99.90
59660;DHT22;45534;52.690;6.268;2024-02-26T07:27:04;4.30;99.90
59660;DHT22;45534;52.690;6.268;2024-02-26T07:29:30;4.30;99.90
59660;DHT22;45534;52.690;6.268;2024-02-26T07:31:56;4.30;99.90
59660;DHT22;45534;52.690;6.268;2024-02-26T07:34:22;4.30;99.90
59660;DHT22;45534;52.690;6.268;2024-02-26T07:36:53;4.30;99.90
59660;DHT22;45534;52.690;6.268;2024-02-26T07:39:19;4.30;99.90
59660;DHT22;45534;52.690;6.268;2024-02-26T07:41:45;4.40;99.90
59660;DHT22;45534;52.690;6.268;2024-02-26T07:44:13;4.30;99.90
59660;DHT22;45534;52.690;6.268;2024-02-26T07:46:39;4.30;99.90
59660;DHT22;45534;52.690;6.268;2024-02-26T07:49:05;4.40;99.90
59660;DHT22;45534;52.690;6.268;2024-02-26T07:51:30;4.40;99.90
59660;DHT22;45534;52.690;6.268;2024-02-26T07:53:56;4.40;99.90
59660;DHT22;45534;52.690;6.268;2024-02-26T07:56:22;4.40;99.90
59660;DHT22;45534;52.690;6.268;2024-02-26T07:58:51;4.40;99.90
59660;DHT22;45534;52.690;6.268;2024-02-26T08:01:16;4.40;99.90
59660;DHT22;45534;52.690;6.268;2024-02-26T08:03:42;4.50;99.90
59660;DHT22;45534;52.690;6.268;2024-02-26T08:06:08;4.50;99.90
59660;DHT22;45534;52.690;6.268;2024-02-26T08:08:34;4.50;99.90
59660;DHT22;45534;52.690;6.268;2024-02-26T08:11:00;4.50;99.90
59660;DHT22;45534;52.690;6.268;2024-02-26T08:13:25;4.50;99.90
59660;DHT22;45534;52.690;6.268;2024-02-26T08:15:52;4.50;99.90
59660;DHT22;45534;52.690;6.268;2024-02-26T08:18:18;4.60;99.90
59660;DHT22;45534;52.690;6.268;2024-02-26T08:20:44;4.60;99.90
59660;DHT22;45534;52.690;6.268;2024-02-26T08:23:10;4.60;99.90
59660;DHT22;45534;52.690;6.268;2024-02-26T08:25:36;4.60;99.90
59660;DHT22;45534;52.690;6.268;2024-02-26T08:28:02;4.70;99.90
59660;DHT22;45534;52.690;6.268;2024-02-26T08:30:28;4.60;99.90
59660;DHT22;45534;52.690;6.268;2024-02-26T08:32:54;4.70;99.90
59660;DHT22;45534;52.690;6.268;2024-02-26T08:35:19;4.70;99.90
59660;DHT22;45534;52.690;6.268;2024-02-26T08:37:46;4.70;99.90
59660;DHT22;45534;52.690;6.268;2024-02-26T08:40:12;4.80;99.90
59660;DHT22;45534;52.690;6.268;2024-02-26T08:42:38;4.70;99.90
59660;DHT22;45534;52.690;6.268;2024-02-26T08:45:04;4.80;99.90
59660;DHT22;45534;52.690;6.268;2024-02-26T08:47:30;4.80;99.90
59660;DHT22;45534;52.690;6.268;2024-02-26T08:49:55;4.80;99.90
59660;DHT22;45534;52.690;6.268;2024-02-26T08:52:21;4.80;99.90
59660;DHT22;45534;52.690;6.268;2024-02-26T08:54:50;4.80;99.90
59660;DHT22;45534;52.690;6.268;2024-02-26T08:57:16;4.90;99.90
59660;DHT22;45534;52.690;6.268;2024-02-26T08:59:41;4.90;99.90
59660;DHT22;45534;52.690;6.268;2024-02-26T09:02:08;4.90;99.90
59660;DHT22;45534;52.690;6.268;2024-02-26T09:04:36;4.90;99.90
59660;DHT22;45534;52.690;6.268;2024-02-26T09:07:02;4.90;99.90
59660;DHT22;45534;52.690;6.268;2024-02-26T09:09:28;4.90;99.90
59660;DHT22;45534;52.690;6.268;2024-02-26T09:11:54;4.90;99.90
59660;DHT22;45534;52.690;6.268;2024-02-26T09:14:21;4.90;99.90
59660;DHT22;45534;52.690;6.268;2024-02-26T09:16:47;4.90;99.90
59660;DHT22;45534;52.690;6.268;2024-02-26T09:19:15;4.90;99.90
59660;DHT22;45534;52.690;6.268;2024-02-26T09:21:45;4.90;99.90
59660;DHT22;45534;52.690;6.268;2024-02-26T09:24:11;5.00;99.90
59660;DHT22;45534;52.690;6.268;2024-02-26T09:26:37;5.00;99.90
59660;DHT22;45534;52.690;6.268;2024-02-26T09:29:03;5.00;99.90
59660;DHT22;45534;52.690;6.268;2024-02-26T09:31:30;5.00;99.90
59660;DHT22;45534;52.690;6.268;2024-02-26T09:33:55;5.00;99.90
59660;DHT22;45534;52.690;6.268;2024-02-26T09:36:21;5.00;99.90
59660;DHT22;45534;52.690;6.268;2024-02-26T09:38:47;5.10;99.90
59660;DHT22;45534;52.690;6.268;2024-02-26T09:41:14;5.10;99.90
59660;DHT22;45534;52.690;6.268;2024-02-26T09:43:44;5.10;99.90
59660;DHT22;45534;52.690;6.268;2024-02-26T09:46:10;5.10;99.90
59660;DHT22;45534;52.690;6.268;2024-02-26T09:48:37;5.10;99.90
59660;DHT22;45534;52.690;6.268;2024-02-26T09:51:05;5.20;99.90
59660;DHT22;45534;52.690;6.268;2024-02-26T09:53:32;5.20;99.90
59660;DHT22;45534;52.690;6.268;2024-02-26T09:55:58;5.20;99.90
59660;DHT22;45534;52.690;6.268;2024-02-26T09:58:26;5.20;99.90
59660;DHT22;45534;52.690;6.268;2024-02-26T10:00:56;5.20;99.90
59660;DHT22;45534;52.690;6.268;2024-02-26T10:03:28;5.30;99.90
59660;DHT22;45534;52.690;6.268;2024-02-26T10:05:53;5.30;99.90
59660;DHT22;45534;52.690;6.268;2024-02-26T10:08:22;5.30;99.90
59660;DHT22;45534;52.690;6.268;2024-02-26T10:10:49;5.30;99.90
59660;DHT22;45534;52.690;6.268;2024-02-26T10:13:15;5.30;99.90
59660;DHT22;45534;52.690;6.268;2024-02-26T10:15:41;5.30;99.90
59660;DHT22;45534;52.690;6.268;2024-02-26T10:18:07;5.40;99.90
59660;DHT22;45534;52.690;6.268;2024-02-26T10:20:33;5.40;99.90
59660;DHT22;45534;52.690;6.268;2024-02-26T10:23:02;5.40;99.90
59660;DHT22;45534;52.690;6.268;2024-02-26T10:25:28;5.40;99.90
59660;DHT22;45534;52.690;6.268;2024-02-26T10:27:54;5.40;99.90
59660;DHT22;45534;52.690;6.268;2024-02-26T10:30:21;5.50;99.90
59660;DHT22;45534;52.690;6.268;2024-02-26T10:32:51;5.50;99.90
59660;DHT22;45534;52.690;6.268;2024-02-26T10:35:17;5.50;99.90
59660;DHT22;45534;52.690;6.268;2024-02-26T10:37:43;5.50;99.90
59660;DHT22;45534;52.690;6.268;2024-02-26T10:40:13;5.60;99.90
59660;DHT22;45534;52.690;6.268;2024-02-26T10:42:40;5.60;99.90
59660;DHT22;45534;52.690;6.268;2024-02-26T10:45:07;5.60;99.90
59660;DHT22;45534;52.690;6.268;2024-02-26T10:47:35;5.60;99.90
59660;DHT22;45534;52.690;6.268;2024-02-26T10:50:05;5.70;99.90
59660;DHT22;45534;52.690;6.268;2024-02-26T10:52:32;5.70;99.90
59660;DHT22;45534;52.690;6.268;2024-02-26T10:55:01;5.70;99.90
59660;DHT22;45534;52.690;6.268;2024-02-26T10:57:35;5.80;99.90
59660;DHT22;45534;52.690;6.268;2024-02-26T11:00:04;5.80;99.90
59660;DHT22;45534;52.690;6.268;2024-02-26T11:02:33;5.90;99.90
59660;DHT22;45534;52.690;6.268;2024-02-26T11:05:03;5.80;99.90
59660;DHT22;45534;52.690;6.268;2024-02-26T11:07:30;5.80;99.90
59660;DHT22;45534;52.690;6.268;2024-02-26T11:09:59;5.80;99.90
59660;DHT22;45534;52.690;6.268;2024-02-26T11:12:25;5.90;99.90
59660;DHT22;45534;52.690;6.268;2024-02-26T11:14:55;5.90;99.90
59660;DHT22;45534;52.690;6.268;2024-02-26T11:17:27;5.90;99.90
59660;DHT22;45534;52.690;6.268;2024-02-26T11:19:58;5.90;99.90
59660;DHT22;45534;52.690;6.268;2024-02-26T11:22:26;5.90;99.90
59660;DHT22;45534;52.690;6.268;2024-02-26T11:24:53;5.90;99.90
59660;DHT22;45534;52.690;6.268;2024-02-26T11:27:24;5.80;99.90
59660;DHT22;45534;52.690;6.268;2024-02-26T11:29:52;5.90;99.90
59660;DHT22;45534;52.690;6.268;2024-02-26T11:32:18;5.90;99.90
59660;DHT22;45534;52.690;6.268;2024-02-26T11:34:44;5.90;99.90
59660;DHT22;45534;52.690;6.268;2024-02-26T11:37:14;5.90;99.90
59660;DHT22;45534;52.690;6.268;2024-02-26T11:39:41;5.90;99.90
59660;DHT22;45534;52.690;6.268;2024-02-26T11:42:10;5.90;99.90
59660;DHT22;45534;52.690;6.268;2024-02-26T11:44:38;5.90;99.90
59660;DHT22;45534;52.690;6.268;2024-02-26T11:47:19;6.00;99.90
59660;DHT22;45534;52.690;6.268;2024-02-26T11:49:45;6.00;99.90
59660;DHT22;45534;52.690;6.268;2024-02-26T11:52:13;6.10;99.90
59660;DHT22;45534;52.690;6.268;2024-02-26T11:54:52;6.10;99.90
59660;DHT22;45534;52.690;6.268;2024-02-26T11:57:22;6.20;99.90
59660;DHT22;45534;52.690;6.268;2024-02-26T11:59:48;6.10;99.90
59660;DHT22;45534;52.690;6.268;2024-02-26T12:03:06;6.10;99.90
59660;DHT22;45534;52.690;6.268;2024-02-26T12:05:33;6.10;99.90
59660;DHT22;45534;52.690;6.268;2024-02-26T12:08:01;6.10;99.90
59660;DHT22;45534;52.690;6.268;2024-02-26T12:10:32;6.20;99.90
59660;DHT22;45534;52.690;6.268;2024-02-26T12:13:13;6.10;99.90
59660;DHT22;45534;52.690;6.268;2024-02-26T12:15:42;6.10;99.90
59660;DHT22;45534;52.690;6.268;2024-02-26T12:18:10;6.20;99.90
59660;DHT22;45534;52.690;6.268;2024-02-26T12:20:39;6.10;99.90
59660;DHT22;45534;52.690;6.268;2024-02-26T12:23:05;6.20;99.90
59660;DHT22;45534;52.690;6.268;2024-02-26T12:25:31;6.20;99.90
59660;DHT22;45534;52.690;6.268;2024-02-26T12:27:58;6.10;99.90
59660;DHT22;45534;52.690;6.268;2024-02-26T12:30:24;6.10;99.90
59660;DHT22;45534;52.690;6.268;2024-02-26T12:32:53;6.10;99.90
59660;DHT22;45534;52.690;6.268;2024-02-26T12:35:23;6.00;99.90
59660;DHT22;45534;52.690;6.268;2024-02-26T12:37:49;6.00;99.90
59660;DHT22;45534;52.690;6.268;2024-02-26T12:40:17;6.00;99.90
59660;DHT22;45534;52.690;6.268;2024-02-26T12:42:43;6.00;99.90
59660;DHT22;45534;52.690;6.268;2024-02-26T12:45:11;6.00;99.90
59660;DHT22;45534;52.690;6.268;2024-02-26T12:47:41;6.10;99.90
59660;DHT22;45534;52.690;6.268;2024-02-26T12:50:08;6.00;99.90
59660;DHT22;45534;52.690;6.268;2024-02-26T12:52:45;6.10;99.90
59660;DHT22;45534;52.690;6.268;2024-02-26T12:55:17;6.00;99.90
59660;DHT22;45534;52.690;6.268;2024-02-26T12:57:44;6.00;99.90
59660;DHT22;45534;52.690;6.268;2024-02-26T13:00:18;6.00;99.90
59660;DHT22;45534;52.690;6.268;2024-02-26T13:02:47;6.10;99.90
59660;DHT22;45534;52.690;6.268;2024-02-26T13:05:14;6.10;99.90
59660;DHT22;45534;52.690;6.268;2024-02-26T13:07:44;6.10;99.90
59660;DHT22;45534;52.690;6.268;2024-02-26T13:10:13;6.10;99.90
59660;DHT22;45534;52.690;6.268;2024-02-26T13:12:46;6.10;99.90
59660;DHT22;45534;52.690;6.268;2024-02-26T13:15:17;6.10;99.90
59660;DHT22;45534;52.690;6.268;2024-02-26T13:17:43;6.10;99.90
59660;DHT22;45534;52.690;6.268;2024-02-26T13:20:09;6.10;99.90
59660;DHT22;45534;52.690;6.268;2024-02-26T13:22:39;6.10;99.90
59660;DHT22;45534;52.690;6.268;2024-02-26T13:25:05;6.10;99.90
59660;DHT22;45534;52.690;6.268;2024-02-26T13:27:33;6.10;99.90
59660;DHT22;45534;52.690;6.268;2024-02-26T13:30:09;6.10;99.90
59660;DHT22;45534;52.690;6.268;2024-02-26T13:32:36;6.10;99.90
59660;DHT22;45534;52.690;6.268;2024-02-26T13:35:12;6.10;99.90
59660;DHT22;45534;52.690;6.268;2024-02-26T13:37:39;6.10;99.90
59660;DHT22;45534;52.690;6.268;2024-02-26T13:40:14;6.10;99.90
59660;DHT22;45534;52.690;6.268;2024-02-26T13:42:40;6.10;99.90
59660;DHT22;45534;52.690;6.268;2024-02-26T13:45:06;6.10;99.90
59660;DHT22;45534;52.690;6.268;2024-02-26T13:47:35;6.10;99.90
59660;DHT22;45534;52.690;6.268;2024-02-26T13:50:01;6.10;99.90
59660;DHT22;45534;52.690;6.268;2024-02-26T13:52:27;6.10;99.90
59660;DHT22;45534;52.690;6.268;2024-02-26T13:54:53;6.10;99.90
59660;DHT22;45534;52.690;6.268;2024-02-26T13:57:21;6.10;99.90
59660;DHT22;45534;52.690;6.268;2024-02-26T13:59:47;6.10;99.90
59660;DHT22;45534;52.690;6.268;2024-02-26T14:02:13;6.20;99.90
59660;DHT22;45534;52.690;6.268;2024-02-26T14:04:38;6.20;99.90
59660;DHT22;45534;52.690;6.268;2024-02-26T14:07:05;6.20;99.90
59660;DHT22;45534;52.690;6.268;2024-02-26T14:09:30;6.20;99.90
59660;DHT22;45534;52.690;6.268;2024-02-26T14:11:58;6.20;99.90
59660;DHT22;45534;52.690;6.268;2024-02-26T14:14:24;6.20;99.90
59660;DHT22;45534;52.690;6.268;2024-02-26T14:16:51;6.20;99.90
59660;DHT22;45534;52.690;6.268;2024-02-26T14:19:17;6.20;99.90
59660;DHT22;45534;52.690;6.268;2024-02-26T14:21:42;6.20;99.90
59660;DHT22;45534;52.690;6.268;2024-02-26T14:24:08;6.20;99.90
59660;DHT22;45534;52.690;6.268;2024-02-26T14:26:34;6.20;99.90
59660;DHT22;45534;52.690;6.268;2024-02-26T14:29:00;6.20;99.90
59660;DHT22;45534;52.690;6.268;2024-02-26T14:31:25;6.10;99.90
59660;DHT22;45534;52.690;6.268;2024-02-26T14:33:52;6.00;99.90
59660;DHT22;45534;52.690;6.268;2024-02-26T14:36:20;6.00;99.90
59660;DHT22;45534;52.690;6.268;2024-02-26T14:38:47;5.90;99.90
59660;DHT22;45534;52.690;6.268;2024-02-26T14:41:13;5.90;99.90
59660;DHT22;45534;52.690;6.268;2024-02-26T14:43:39;5.80;99.90
59660;DHT22;45534;52.690;6.268;2024-02-26T14:46:05;5.80;99.90
59660;DHT22;45534;52.690;6.268;2024-02-26T14:48:30;5.80;99.90
59660;DHT22;45534;52.690;6.268;2024-02-26T14:50:57;5.80;99.90
59660;DHT22;45534;52.690;6.268;2024-02-26T14:53:23;5.80;99.90
59660;DHT22;45534;52.690;6.268;2024-02-26T14:55:48;5.80;99.90
59660;DHT22;45534;52.690;6.268;2024-02-26T14:58:14;5.70;99.90
59660;DHT22;45534;52.690;6.268;2024-02-26T15:00:40;5.80;99.90
59660;DHT22;45534;52.690;6.268;2024-02-26T15:03:05;5.80;99.90
59660;DHT22;45534;52.690;6.268;2024-02-26T15:05:32;5.70;99.90
59660;DHT22;45534;52.690;6.268;2024-02-26T15:07:58;5.70;99.90
59660;DHT22;45534;52.690;6.268;2024-02-26T15:10:24;5.70;99.90
59660;DHT22;45534;52.690;6.268;2024-02-26T15:12:50;5.70;99.90
59660;DHT22;45534;52.690;6.268;2024-02-26T15:15:23;5.70;99.90
59660;DHT22;45534;52.690;6.268;2024-02-26T15:17:49;5.70;99.90
59660;DHT22;45534;52.690;6.268;2024-02-26T15:20:15;5.60;99.90
59660;DHT22;45534;52.690;6.268;2024-02-26T15:22:41;5.60;99.90
59660;DHT22;45534;52.690;6.268;2024-02-26T15:25:08;5.60;99.90
59660;DHT22;45534;52.690;6.268;2024-02-26T15:27:34;5.60;99.90
59660;DHT22;45534;52.690;6.268;2024-02-26T15:30:00;5.60;99.90
59660;DHT22;45534;52.690;6.268;2024-02-26T15:32:26;5.60;99.90
59660;DHT22;45534;52.690;6.268;2024-02-26T15:34:55;5.60;99.90
59660;DHT22;45534;52.690;6.268;2024-02-26T15:37:21;5.60;99.90
59660;DHT22;45534;52.690;6.268;2024-02-26T15:39:47;5.60;99.90
59660;DHT22;45534;52.690;6.268;2024-02-26T15:42:14;5.60;99.90